createdAt,value
2022-09-18T00:00:44.499Z,11.64
2022-09-18T00:01:44.605Z,11.64
2022-09-18T00:02:44.484Z,11.64
2022-09-18T00:03:44.459Z,11.67
2022-09-18T00:04:44.448Z,11.65
2022-09-18T00:05:44.446Z,11.67
2022-09-18T00:06:44.422Z,11.67
2022-09-18T00:07:44.409Z,11.67
2022-09-18T00:08:44.397Z,11.67
2022-09-18T00:09:44.403Z,11.69
2022-09-18T00:10:44.379Z,11.69
2022-09-18T00:11:44.372Z,11.69
2022-09-18T00:12:44.366Z,11.70
2022-09-18T00:13:44.361Z,11.70
2022-09-18T00:14:44.358Z,11.70
2022-09-18T00:15:44.385Z,11.72
2022-09-18T00:16:44.311Z,11.72
2022-09-18T00:17:44.310Z,11.73
2022-09-18T00:18:44.290Z,11.72
2022-09-18T00:19:44.282Z,11.73
2022-09-18T00:20:44.270Z,11.73
2022-09-18T00:21:44.253Z,11.75
2022-09-18T00:22:44.262Z,11.75
2022-09-18T00:23:44.231Z,11.75
2022-09-18T00:24:44.252Z,11.76
2022-09-18T00:25:44.240Z,11.76
2022-09-18T00:26:44.201Z,11.76
2022-09-18T00:27:44.182Z,11.78
2022-09-18T00:28:44.181Z,11.76
2022-09-18T00:29:44.191Z,11.78
2022-09-18T00:30:44.163Z,11.78
2022-09-18T00:31:44.190Z,11.79
2022-09-18T00:32:44.144Z,11.79
2022-09-18T00:33:44.123Z,11.79
2022-09-18T00:34:44.145Z,11.80
2022-09-18T00:35:44.106Z,11.78
2022-09-18T00:36:44.104Z,11.80
2022-09-18T00:37:44.084Z,11.79
2022-09-18T00:38:44.091Z,11.79
2022-09-18T00:39:44.106Z,11.80
2022-09-18T00:40:44.079Z,11.78
2022-09-18T00:41:44.046Z,11.79
2022-09-18T00:42:44.039Z,11.80
2022-09-18T00:43:44.030Z,11.79
2022-09-18T00:44:44.006Z,11.80
2022-09-18T00:45:43.998Z,11.79
2022-09-18T00:46:44.097Z,11.79
2022-09-18T00:47:43.985Z,11.79
2022-09-18T00:48:43.956Z,11.79
2022-09-18T00:49:43.999Z,11.78
2022-09-18T00:50:43.947Z,11.78
2022-09-18T00:51:43.928Z,11.78
2022-09-18T00:52:43.923Z,11.76
2022-09-18T00:53:43.899Z,11.78
2022-09-18T00:54:43.887Z,11.75
2022-09-18T00:55:43.897Z,11.75
2022-09-18T00:56:43.868Z,11.75
2022-09-18T00:57:43.858Z,11.75
2022-09-18T00:58:43.840Z,11.75
2022-09-18T00:59:43.858Z,11.75
2022-09-18T01:00:43.875Z,11.73
2022-09-18T01:01:43.864Z,11.72
2022-09-18T01:02:43.799Z,11.73
2022-09-18T01:03:43.796Z,11.72
2022-09-18T01:04:43.785Z,11.72
2022-09-18T01:05:43.781Z,11.70
2022-09-18T01:06:43.775Z,11.72
2022-09-18T01:07:43.758Z,11.72
2022-09-18T01:08:44.326Z,11.70
2022-09-18T01:09:43.720Z,11.70
2022-09-18T01:10:43.722Z,11.70
2022-09-18T01:11:43.738Z,11.70
2022-09-18T01:12:43.693Z,11.69
2022-09-18T01:13:43.688Z,11.69
2022-09-18T01:14:43.672Z,11.69
2022-09-18T01:15:43.691Z,11.70
2022-09-18T01:16:43.652Z,11.69
2022-09-18T01:17:43.644Z,11.69
2022-09-18T01:18:43.625Z,11.69
2022-09-18T01:19:43.682Z,11.67
2022-09-18T01:20:43.613Z,11.69
2022-09-18T01:21:43.625Z,11.69
2022-09-18T01:22:43.582Z,11.69
2022-09-18T01:23:43.583Z,11.65
2022-09-18T01:24:43.562Z,11.67
2022-09-18T01:25:43.574Z,11.67
2022-09-18T01:26:43.544Z,11.67
2022-09-18T01:27:43.536Z,11.67
2022-09-18T01:28:43.545Z,11.65
2022-09-18T01:29:43.516Z,11.67
2022-09-18T01:30:43.503Z,11.65
2022-09-18T01:31:43.509Z,11.65
2022-09-18T01:32:43.475Z,11.65
2022-09-18T01:33:43.455Z,11.64
2022-09-18T01:34:43.455Z,11.64
2022-09-18T01:35:43.465Z,11.65
2022-09-18T01:36:43.437Z,11.65
2022-09-18T01:37:43.427Z,11.64
2022-09-18T01:38:43.441Z,11.62
2022-09-18T01:39:43.392Z,11.62
2022-09-18T01:40:43.407Z,11.64
2022-09-18T01:41:43.387Z,11.64
2022-09-18T01:42:43.367Z,11.64
2022-09-18T01:43:43.378Z,11.64
2022-09-18T01:44:43.347Z,11.62
2022-09-18T01:45:43.398Z,11.62
2022-09-18T01:46:43.380Z,11.62
2022-09-18T01:47:43.308Z,11.61
2022-09-18T01:48:43.297Z,11.62
2022-09-18T01:49:43.292Z,11.64
2022-09-18T01:50:43.297Z,11.62
2022-09-18T01:51:43.259Z,11.62
2022-09-18T01:52:43.277Z,11.62
2022-09-18T01:53:43.259Z,11.62
2022-09-18T01:54:43.229Z,11.62
2022-09-18T01:55:43.229Z,11.64
2022-09-18T01:56:43.229Z,11.62
2022-09-18T01:57:43.210Z,11.62
2022-09-18T01:58:43.190Z,11.64
2022-09-18T01:59:43.192Z,11.62
2022-09-18T02:00:43.172Z,11.62
2022-09-18T02:01:43.258Z,11.64
2022-09-18T02:02:43.293Z,11.62
2022-09-18T02:03:43.132Z,11.62
2022-09-18T02:04:43.227Z,11.64
2022-09-18T02:05:43.152Z,11.65
2022-09-18T02:06:43.229Z,11.65
2022-09-18T02:07:43.110Z,11.64
2022-09-18T02:08:43.112Z,11.64
2022-09-18T02:09:43.290Z,11.64
2022-09-18T02:10:43.087Z,11.65
2022-09-18T02:11:43.057Z,11.67
2022-09-18T02:12:43.035Z,11.65
2022-09-18T02:13:43.033Z,11.65
2022-09-18T02:14:43.022Z,11.67
2022-09-18T02:15:43.025Z,11.67
2022-09-18T02:16:42.993Z,11.67
2022-09-18T02:17:42.991Z,11.69
2022-09-18T02:18:42.966Z,11.65
2022-09-18T02:19:43.006Z,11.69
2022-09-18T02:20:42.984Z,11.67
2022-09-18T02:21:42.924Z,11.67
2022-09-18T02:22:42.944Z,11.69
2022-09-18T02:23:42.924Z,11.67
2022-09-18T02:24:42.919Z,11.69
2022-09-18T02:25:42.895Z,11.67
2022-09-18T02:26:42.886Z,11.69
2022-09-18T02:27:42.858Z,11.67
2022-09-18T02:28:42.918Z,11.67
2022-09-18T02:29:42.846Z,11.70
2022-09-18T02:30:42.836Z,11.65
2022-09-18T02:31:42.891Z,11.67
2022-09-18T02:32:42.827Z,11.69
2022-09-18T02:33:42.796Z,11.67
2022-09-18T02:34:42.811Z,11.67
2022-09-18T02:35:42.777Z,11.67
2022-09-18T02:36:42.778Z,11.67
2022-09-18T02:37:42.809Z,11.67
2022-09-18T02:38:42.777Z,11.65
2022-09-18T02:39:42.747Z,11.64
2022-09-18T02:40:42.748Z,11.64
2022-09-18T02:41:42.710Z,11.64
2022-09-18T02:42:42.708Z,11.62
2022-09-18T02:43:42.689Z,11.64
2022-09-18T02:44:42.773Z,11.64
2022-09-18T02:45:42.670Z,11.65
2022-09-18T02:46:42.702Z,11.64
2022-09-18T02:47:42.655Z,11.62
2022-09-18T02:48:42.639Z,11.62
2022-09-18T02:49:42.669Z,11.64
2022-09-18T02:50:42.622Z,11.61
2022-09-18T02:51:42.603Z,11.61
2022-09-18T02:52:42.602Z,11.62
2022-09-18T02:53:42.590Z,11.62
2022-09-18T02:54:42.581Z,11.62
2022-09-18T02:55:42.608Z,11.62
2022-09-18T02:56:42.550Z,11.61
2022-09-18T02:57:42.542Z,11.62
2022-09-18T02:58:42.561Z,11.62
2022-09-18T02:59:42.541Z,11.62
2022-09-18T03:00:42.532Z,11.62
2022-09-18T03:01:42.589Z,11.61
2022-09-18T03:02:42.551Z,11.62
2022-09-18T03:03:42.472Z,11.61
2022-09-18T03:04:42.483Z,11.61
2022-09-18T03:05:42.461Z,11.61
2022-09-18T03:06:42.487Z,11.61
2022-09-18T03:07:42.433Z,11.64
2022-09-18T03:08:42.602Z,11.61
2022-09-18T03:09:42.424Z,11.61
2022-09-18T03:10:42.402Z,11.61
2022-09-18T03:11:42.394Z,11.60
2022-09-18T03:12:42.382Z,11.61
2022-09-18T03:13:42.373Z,11.60
2022-09-18T03:14:42.416Z,11.60
2022-09-18T03:15:42.358Z,11.58
2022-09-18T03:16:42.383Z,11.60
2022-09-18T03:17:42.335Z,11.60
2022-09-18T03:18:42.314Z,11.60
2022-09-18T03:19:42.345Z,11.58
2022-09-18T03:20:42.285Z,11.58
2022-09-18T03:21:42.276Z,11.57
2022-09-18T03:22:42.355Z,11.57
2022-09-18T03:23:45.438Z,11.57
2022-09-18T03:24:42.258Z,11.55
2022-09-18T03:25:42.258Z,11.55
2022-09-18T03:26:42.243Z,11.55
2022-09-18T03:27:42.217Z,11.55
2022-09-18T03:28:42.206Z,11.54
2022-09-18T03:29:42.238Z,11.55
2022-09-18T03:30:42.259Z,11.52
2022-09-18T03:31:42.240Z,11.51
2022-09-18T03:32:42.157Z,11.54
2022-09-18T03:33:42.157Z,11.54
2022-09-18T03:34:42.154Z,11.52
2022-09-18T03:35:42.131Z,11.52
2022-09-18T03:36:42.119Z,11.52
2022-09-18T03:37:42.108Z,11.52
2022-09-18T03:38:42.290Z,11.52
2022-09-18T03:39:42.100Z,11.52
2022-09-18T03:40:46.627Z,11.55
2022-09-18T03:41:43.059Z,11.54
2022-09-18T03:42:42.150Z,11.52
2022-09-18T03:43:42.120Z,11.54
2022-09-18T03:44:42.039Z,11.54
2022-09-18T03:45:42.028Z,11.54
2022-09-18T03:46:42.316Z,11.54
2022-09-18T03:47:42.024Z,11.54
2022-09-18T03:48:41.979Z,11.54
2022-09-18T03:49:41.979Z,11.55
2022-09-18T03:50:41.962Z,11.54
2022-09-18T03:51:41.952Z,11.54
2022-09-18T03:52:41.932Z,11.54
2022-09-18T03:53:41.932Z,11.52
2022-09-18T03:54:41.911Z,11.54
2022-09-18T03:55:41.922Z,11.54
2022-09-18T03:56:41.892Z,11.52
2022-09-18T03:57:41.888Z,11.52
2022-09-18T03:58:41.993Z,11.52
2022-09-18T03:59:41.935Z,11.52
2022-09-18T04:00:41.864Z,11.52
2022-09-18T04:01:41.919Z,11.51
2022-09-18T04:02:41.859Z,11.52
2022-09-18T04:03:41.822Z,11.52
2022-09-18T04:04:41.804Z,11.52
2022-09-18T04:05:41.815Z,11.51
2022-09-18T04:06:41.793Z,11.51
2022-09-18T04:07:41.783Z,11.51
2022-09-18T04:08:41.770Z,11.51
2022-09-18T04:09:41.752Z,11.51
2022-09-18T04:10:41.828Z,11.51
2022-09-18T04:11:41.735Z,11.51
2022-09-18T04:12:41.716Z,11.51
2022-09-18T04:13:41.717Z,11.49
2022-09-18T04:14:41.696Z,11.49
2022-09-18T04:15:41.708Z,11.47
2022-09-18T04:16:41.667Z,11.49
2022-09-18T04:17:41.678Z,11.49
2022-09-18T04:18:41.646Z,11.49
2022-09-18T04:19:41.697Z,11.49
2022-09-18T04:20:41.636Z,11.47
2022-09-18T04:21:41.617Z,11.49
2022-09-18T04:22:41.628Z,11.47
2022-09-18T04:23:41.602Z,11.49
2022-09-18T04:24:41.578Z,11.47
2022-09-18T04:25:41.629Z,11.49
2022-09-18T04:26:41.579Z,11.47
2022-09-18T04:27:41.589Z,11.47
2022-09-18T04:28:41.580Z,11.47
2022-09-18T04:29:41.537Z,11.46
2022-09-18T04:30:41.529Z,11.46
2022-09-18T04:31:41.587Z,11.46
2022-09-18T04:32:41.518Z,11.46
2022-09-18T04:33:41.509Z,11.46
2022-09-18T04:34:41.530Z,11.44
2022-09-18T04:35:41.479Z,11.46
2022-09-18T04:36:41.451Z,11.44
2022-09-18T04:37:41.454Z,11.44
2022-09-18T04:38:41.452Z,11.43
2022-09-18T04:39:41.418Z,11.44
2022-09-18T04:40:41.489Z,11.43
2022-09-18T04:41:41.401Z,11.43
2022-09-18T04:42:41.400Z,11.42
2022-09-18T04:43:41.372Z,11.43
2022-09-18T04:44:41.374Z,11.43
2022-09-18T04:45:41.361Z,11.42
2022-09-18T04:46:41.365Z,11.42
2022-09-18T04:47:41.333Z,11.40
2022-09-18T04:48:41.324Z,11.40
2022-09-18T04:49:41.312Z,11.40
2022-09-18T04:50:41.314Z,11.42
2022-09-18T04:51:41.290Z,11.40
2022-09-18T04:52:41.282Z,11.42
2022-09-18T04:53:41.273Z,11.40
2022-09-18T04:54:41.272Z,11.42
2022-09-18T04:55:41.411Z,11.42
2022-09-18T04:56:41.244Z,11.42
2022-09-18T04:57:41.243Z,11.42
2022-09-18T04:58:41.214Z,11.43
2022-09-18T04:59:41.203Z,11.42
2022-09-18T05:00:41.239Z,11.43
2022-09-18T05:01:41.247Z,11.42
2022-09-18T05:02:41.195Z,11.42
2022-09-18T05:03:41.174Z,11.43
2022-09-18T05:04:41.172Z,11.43
2022-09-18T05:05:41.145Z,11.43
2022-09-18T05:06:41.125Z,11.42
2022-09-18T05:07:41.114Z,11.43
2022-09-18T05:08:41.116Z,11.44
2022-09-18T05:09:41.100Z,11.43
2022-09-18T05:10:41.078Z,11.43
2022-09-18T05:11:41.066Z,11.44
2022-09-18T05:12:41.056Z,11.44
2022-09-18T05:13:41.056Z,11.44
2022-09-18T05:14:41.110Z,11.44
2022-09-18T05:15:41.040Z,11.44
2022-09-18T05:16:41.038Z,11.47
2022-09-18T05:17:40.998Z,11.46
2022-09-18T05:18:40.989Z,11.47
2022-09-18T05:19:40.988Z,11.47
2022-09-18T05:20:40.979Z,11.47
2022-09-18T05:21:40.964Z,11.47
2022-09-18T05:22:40.958Z,11.47
2022-09-18T05:23:40.949Z,11.51
2022-09-18T05:24:40.937Z,11.51
2022-09-18T05:25:40.919Z,11.49
2022-09-18T05:26:40.908Z,11.51
2022-09-18T05:27:40.880Z,11.51
2022-09-18T05:28:40.914Z,11.51
2022-09-18T05:29:40.896Z,11.52
2022-09-18T05:30:40.860Z,11.52
2022-09-18T05:31:40.875Z,11.54
2022-09-18T05:32:40.838Z,11.54
2022-09-18T05:33:40.832Z,11.54
2022-09-18T05:34:40.833Z,11.55
2022-09-18T05:35:40.810Z,11.55
2022-09-18T05:36:40.791Z,11.55
2022-09-18T05:37:40.779Z,11.55
2022-09-18T05:38:40.811Z,11.57
2022-09-18T05:39:40.762Z,11.58
2022-09-18T05:40:40.873Z,11.57
2022-09-18T05:41:40.770Z,11.58
2022-09-18T05:42:40.724Z,11.60
2022-09-18T05:43:40.712Z,11.60
2022-09-18T05:44:40.715Z,11.60
2022-09-18T05:45:40.712Z,11.61
2022-09-18T05:46:40.777Z,11.61
2022-09-18T05:47:40.696Z,11.61
2022-09-18T05:48:40.666Z,11.61
2022-09-18T05:49:40.654Z,11.62
2022-09-18T05:50:40.657Z,11.62
2022-09-18T05:51:40.635Z,11.64
2022-09-18T05:52:40.633Z,11.65
2022-09-18T05:53:40.596Z,11.65
2022-09-18T05:54:40.602Z,11.65
2022-09-18T05:55:40.594Z,11.67
2022-09-18T05:56:40.575Z,11.67
2022-09-18T05:57:40.566Z,11.67
2022-09-18T05:58:40.546Z,11.69
2022-09-18T05:59:40.534Z,11.69
2022-09-18T06:00:40.535Z,11.67
2022-09-18T06:01:44.878Z,11.70
2022-09-18T06:02:41.588Z,11.70
2022-09-18T06:03:40.486Z,11.70
2022-09-18T06:04:40.485Z,11.72
2022-09-18T06:05:40.575Z,11.70
2022-09-18T06:06:40.458Z,11.73
2022-09-18T06:07:40.449Z,11.75
2022-09-18T06:08:40.437Z,11.76
2022-09-18T06:09:40.480Z,11.78
2022-09-18T06:10:40.437Z,11.78
2022-09-18T06:11:40.401Z,11.78
2022-09-18T06:12:40.387Z,11.78
2022-09-18T06:13:40.379Z,11.79
2022-09-18T06:14:40.428Z,11.79
2022-09-18T06:15:40.369Z,11.80
2022-09-18T06:16:42.519Z,11.82
2022-09-18T06:17:40.340Z,11.82
2022-09-18T06:18:40.319Z,11.80
2022-09-18T06:19:40.339Z,11.83
2022-09-18T06:20:40.320Z,11.83
2022-09-18T06:21:40.319Z,11.83
2022-09-18T06:22:40.300Z,11.85
2022-09-18T06:23:40.281Z,11.86
2022-09-18T06:24:40.279Z,11.85
2022-09-18T06:25:40.271Z,11.85
2022-09-18T06:26:40.250Z,11.86
2022-09-18T06:27:40.221Z,11.86
2022-09-18T06:28:40.213Z,11.88
2022-09-18T06:29:40.203Z,11.88
2022-09-18T06:30:40.206Z,11.90
2022-09-18T06:31:40.233Z,11.90
2022-09-18T06:32:40.172Z,11.91
2022-09-18T06:33:40.153Z,11.95
2022-09-18T06:34:40.158Z,11.95
2022-09-18T06:35:40.153Z,11.96
2022-09-18T06:36:40.136Z,11.98
2022-09-18T06:37:40.120Z,11.98
2022-09-18T06:38:40.114Z,12.02
2022-09-18T06:39:40.084Z,12.02
2022-09-18T06:40:40.189Z,12.05
2022-09-18T06:41:40.073Z,12.07
2022-09-18T06:42:45.327Z,12.10
2022-09-18T06:43:41.044Z,12.13
2022-09-18T06:44:40.046Z,12.14
2022-09-18T06:45:40.044Z,12.16
2022-09-18T06:46:40.119Z,12.19
2022-09-18T06:47:40.008Z,12.19
2022-09-18T06:48:39.994Z,12.19
2022-09-18T06:49:39.985Z,12.20
2022-09-18T06:50:39.998Z,12.19
2022-09-18T06:51:39.963Z,12.20
2022-09-18T06:52:39.966Z,12.21
2022-09-18T06:53:39.947Z,12.21
2022-09-18T06:54:39.931Z,12.21
2022-09-18T06:55:39.931Z,12.20
2022-09-18T06:56:39.909Z,12.21
2022-09-18T06:57:40.109Z,12.23
2022-09-18T06:58:39.888Z,12.21
2022-09-18T06:59:39.882Z,12.20
2022-09-18T07:00:39.917Z,12.21
2022-09-18T07:01:39.895Z,12.20
2022-09-18T07:02:39.888Z,12.21
2022-09-18T07:03:39.897Z,12.20
2022-09-18T07:04:39.821Z,12.21
2022-09-18T07:05:39.819Z,12.23
2022-09-18T07:06:39.824Z,12.23
2022-09-18T07:07:39.789Z,12.23
2022-09-18T07:08:39.778Z,12.27
2022-09-18T07:09:39.761Z,12.28
2022-09-18T07:10:39.790Z,12.31
2022-09-18T07:11:39.745Z,12.31
2022-09-18T07:12:39.740Z,12.34
2022-09-18T07:13:39.721Z,12.35
2022-09-18T07:14:39.792Z,12.37
2022-09-18T07:15:39.741Z,12.39
2022-09-18T07:16:39.827Z,12.42
2022-09-18T07:17:39.679Z,12.45
2022-09-18T07:18:39.672Z,12.46
2022-09-18T07:19:39.663Z,12.47
2022-09-18T07:20:39.642Z,12.49
2022-09-18T07:21:39.673Z,12.49
2022-09-18T07:22:41.718Z,12.47
2022-09-18T07:23:40.612Z,12.47
2022-09-18T07:24:39.603Z,12.46
2022-09-18T07:25:39.594Z,12.46
2022-09-18T07:26:39.573Z,12.45
2022-09-18T07:27:39.564Z,12.47
2022-09-18T07:28:39.553Z,12.46
2022-09-18T07:29:39.544Z,12.47
2022-09-18T07:30:39.535Z,12.49
2022-09-18T07:31:39.685Z,12.49
2022-09-18T07:32:39.506Z,12.49
2022-09-18T07:33:39.494Z,12.52
2022-09-18T07:34:39.505Z,12.52
2022-09-18T07:35:39.477Z,12.53
2022-09-18T07:36:39.468Z,12.54
2022-09-18T07:37:39.451Z,12.54
2022-09-18T07:38:39.442Z,12.56
2022-09-18T07:39:39.436Z,12.62
2022-09-18T07:40:39.443Z,12.68
2022-09-18T07:41:39.421Z,12.70
2022-09-18T07:42:39.398Z,12.70
2022-09-18T07:43:39.387Z,12.64
2022-09-18T07:44:39.389Z,12.59
2022-09-18T07:45:39.421Z,12.56
2022-09-18T07:46:39.443Z,12.57
2022-09-18T07:47:39.343Z,12.64
2022-09-18T07:48:39.339Z,12.75
2022-09-18T07:49:39.340Z,12.93
2022-09-18T07:50:39.310Z,13.05
2022-09-18T07:51:39.292Z,13.19
2022-09-18T07:52:39.291Z,13.29
2022-09-18T07:53:39.271Z,13.39
2022-09-18T07:54:39.280Z,13.36
2022-09-18T07:55:39.330Z,13.28
2022-09-18T07:56:41.591Z,13.19
2022-09-18T07:57:39.221Z,13.12
2022-09-18T07:58:39.231Z,13.11
2022-09-18T07:59:39.226Z,13.04
2022-09-18T08:00:39.208Z,13.03
2022-09-18T08:01:39.409Z,13.01
2022-09-18T08:02:39.333Z,13.00
2022-09-18T08:03:41.387Z,13.03
2022-09-18T08:04:39.183Z,13.10
2022-09-18T08:05:39.142Z,13.10
2022-09-18T08:06:39.132Z,13.23
2022-09-18T08:07:39.115Z,13.30
2022-09-18T08:08:39.115Z,13.36
2022-09-18T08:09:39.124Z,13.39
2022-09-18T08:10:39.094Z,13.45
2022-09-18T08:11:39.096Z,13.45
2022-09-18T08:12:39.070Z,13.46
2022-09-18T08:13:39.055Z,13.52
2022-09-18T08:14:39.058Z,13.57
2022-09-18T08:15:39.029Z,13.64
2022-09-18T08:16:39.055Z,13.69
2022-09-18T08:17:39.018Z,13.77
2022-09-18T08:18:39.002Z,13.87
2022-09-18T08:19:39.042Z,14.04
2022-09-18T08:20:39.018Z,14.25
2022-09-18T08:21:38.960Z,14.29
2022-09-18T08:22:38.959Z,14.39
2022-09-18T08:23:38.941Z,14.39
2022-09-18T08:24:38.941Z,14.37
2022-09-18T08:25:38.930Z,14.36
2022-09-18T08:26:38.920Z,14.28
2022-09-18T08:27:38.954Z,14.27
2022-09-18T08:28:38.902Z,14.18
2022-09-18T08:29:39.011Z,14.15
2022-09-18T08:30:38.865Z,14.17
2022-09-18T08:31:38.886Z,14.20
2022-09-18T08:32:38.879Z,14.21
2022-09-18T08:33:38.825Z,14.24
2022-09-18T08:34:38.854Z,14.29
2022-09-18T08:35:38.815Z,14.29
2022-09-18T08:36:38.803Z,14.36
2022-09-18T08:37:38.784Z,14.55
2022-09-18T08:38:39.007Z,14.80
2022-09-18T08:39:38.774Z,14.95
2022-09-18T08:40:38.785Z,14.98
2022-09-18T08:41:38.748Z,14.86
2022-09-18T08:42:38.736Z,14.75
2022-09-18T08:43:38.754Z,14.58
2022-09-18T08:44:38.727Z,14.47
2022-09-18T08:45:38.733Z,14.40
2022-09-18T08:46:38.736Z,14.32
2022-09-18T08:47:38.688Z,14.21
2022-09-18T08:48:38.670Z,14.25
2022-09-18T08:49:38.708Z,14.28
2022-09-18T08:50:38.922Z,14.32
2022-09-18T08:51:38.655Z,14.36
2022-09-18T08:52:38.637Z,14.40
2022-09-18T08:53:38.621Z,14.37
2022-09-18T08:54:38.617Z,14.40
2022-09-18T08:55:38.591Z,14.47
2022-09-18T08:56:38.590Z,14.43
2022-09-18T08:57:38.571Z,14.43
2022-09-18T08:58:38.569Z,14.43
2022-09-18T08:59:38.583Z,14.43
2022-09-18T09:00:38.583Z,14.40
2022-09-18T09:01:38.696Z,14.32
2022-09-18T09:02:38.538Z,14.29
2022-09-18T09:03:38.504Z,14.32
2022-09-18T09:04:38.503Z,14.35
2022-09-18T09:05:38.488Z,14.35
2022-09-18T09:06:38.473Z,14.35
2022-09-18T09:07:38.464Z,14.33
2022-09-18T09:08:38.455Z,14.29
2022-09-18T09:09:38.444Z,14.28
2022-09-18T09:10:38.435Z,14.22
2022-09-18T09:11:38.415Z,14.27
2022-09-18T09:12:38.996Z,14.27
2022-09-18T09:13:38.386Z,14.21
2022-09-18T09:14:56.077Z,14.17
2022-09-18T09:15:39.366Z,14.17
2022-09-18T09:16:38.427Z,14.18
2022-09-18T09:17:38.351Z,14.24
2022-09-18T09:18:38.339Z,14.33
2022-09-18T09:19:38.338Z,14.42
2022-09-18T09:20:38.317Z,14.51
2022-09-18T09:21:38.418Z,14.52
2022-09-18T09:22:38.298Z,14.54
2022-09-18T09:23:38.279Z,14.55
2022-09-18T09:24:38.288Z,14.55
2022-09-18T09:25:38.262Z,14.54
2022-09-18T09:26:38.258Z,14.52
2022-09-18T09:27:38.232Z,14.50
2022-09-18T09:28:38.230Z,14.45
2022-09-18T09:29:38.230Z,14.39
2022-09-18T09:30:38.210Z,14.36
2022-09-18T09:31:38.251Z,14.37
2022-09-18T09:32:38.194Z,14.36
2022-09-18T09:33:38.173Z,14.35
2022-09-18T09:34:38.182Z,14.33
2022-09-18T09:35:38.154Z,14.29
2022-09-18T09:36:38.143Z,14.28
2022-09-18T09:37:38.145Z,14.27
2022-09-18T09:38:38.133Z,14.24
2022-09-18T09:39:38.116Z,14.20
2022-09-18T09:40:38.135Z,14.14
2022-09-18T09:41:38.084Z,14.09
2022-09-18T09:42:38.075Z,14.03
2022-09-18T09:43:38.055Z,13.96
2022-09-18T09:44:38.064Z,13.87
2022-09-18T09:45:38.167Z,13.81
2022-09-18T09:46:38.059Z,13.73
2022-09-18T09:47:38.017Z,13.67
2022-09-18T09:48:38.006Z,13.60
2022-09-18T09:49:38.007Z,13.55
2022-09-18T09:50:37.986Z,13.49
2022-09-18T09:51:37.978Z,13.48
2022-09-18T09:52:37.970Z,13.42
2022-09-18T09:53:37.961Z,13.39
2022-09-18T09:54:37.949Z,13.36
2022-09-18T09:55:37.928Z,13.33
2022-09-18T09:56:37.931Z,13.38
2022-09-18T09:57:37.907Z,13.33
2022-09-18T09:58:37.903Z,13.33
2022-09-18T09:59:37.919Z,13.36
2022-09-18T10:00:37.920Z,13.29
2022-09-18T10:01:37.891Z,13.26
2022-09-18T10:02:37.860Z,13.25
2022-09-18T10:03:37.841Z,13.23
2022-09-18T10:04:37.850Z,13.23
2022-09-18T10:05:37.819Z,13.20
2022-09-18T10:06:37.811Z,13.22
2022-09-18T10:07:37.800Z,13.25
2022-09-18T10:08:37.856Z,13.25
2022-09-18T10:09:37.780Z,13.25
2022-09-18T10:10:37.822Z,13.25
2022-09-18T10:11:37.754Z,13.26
2022-09-18T10:12:37.742Z,13.28
2022-09-18T10:13:37.734Z,13.29
2022-09-18T10:14:37.744Z,13.30
2022-09-18T10:15:37.721Z,13.32
2022-09-18T10:16:37.742Z,13.36
2022-09-18T10:17:37.723Z,13.39
2022-09-18T10:18:37.734Z,13.45
2022-09-18T10:19:37.674Z,13.48
2022-09-18T10:20:37.664Z,13.45
2022-09-18T10:21:37.672Z,13.48
2022-09-18T10:22:37.638Z,13.49
2022-09-18T10:23:37.626Z,13.51
2022-09-18T10:24:37.677Z,13.54
2022-09-18T10:25:37.690Z,13.54
2022-09-18T10:26:37.599Z,13.54
2022-09-18T10:27:37.576Z,13.51
2022-09-18T10:28:37.579Z,13.49
2022-09-18T10:29:37.568Z,13.55
2022-09-18T10:30:37.805Z,13.57
2022-09-18T10:31:37.626Z,13.62
2022-09-18T10:32:37.529Z,13.66
2022-09-18T10:33:37.532Z,13.67
2022-09-18T10:34:37.509Z,13.69
2022-09-18T10:35:37.498Z,13.69
2022-09-18T10:36:37.480Z,13.70
2022-09-18T10:37:37.491Z,13.73
2022-09-18T10:38:37.459Z,13.71
2022-09-18T10:39:37.460Z,13.70
2022-09-18T10:40:37.485Z,13.67
2022-09-18T10:41:37.603Z,13.66
2022-09-18T10:42:37.416Z,13.66
2022-09-18T10:43:37.457Z,13.64
2022-09-18T10:44:37.413Z,13.62
2022-09-18T10:45:37.382Z,13.62
2022-09-18T10:46:37.427Z,13.57
2022-09-18T10:47:37.366Z,13.48
2022-09-18T10:48:37.356Z,13.46
2022-09-18T10:49:37.352Z,13.44
2022-09-18T10:50:37.338Z,13.42
2022-09-18T10:51:37.321Z,13.41
2022-09-18T10:52:37.305Z,13.39
2022-09-18T10:53:37.293Z,13.39
2022-09-18T10:54:37.294Z,13.36
2022-09-18T10:55:37.305Z,13.29
2022-09-18T10:56:37.273Z,13.29
2022-09-18T10:57:37.374Z,13.26
2022-09-18T10:58:37.244Z,13.22
2022-09-18T10:59:37.354Z,13.20
2022-09-18T11:00:37.274Z,13.17
2022-09-18T11:01:40.419Z,13.15
2022-09-18T11:02:40.112Z,13.11
2022-09-18T11:03:37.256Z,13.08
2022-09-18T11:04:37.200Z,13.07
2022-09-18T11:05:37.287Z,13.08
2022-09-18T11:06:37.147Z,13.14
2022-09-18T11:07:37.153Z,13.12
2022-09-18T11:08:37.139Z,13.15
2022-09-18T11:09:37.137Z,13.23
2022-09-18T11:10:37.202Z,13.25
2022-09-18T11:11:37.158Z,13.28
2022-09-18T11:12:37.086Z,13.32
2022-09-18T11:13:37.109Z,13.33
2022-09-18T11:14:37.068Z,13.32
2022-09-18T11:15:37.070Z,13.33
2022-09-18T11:16:37.144Z,13.38
2022-09-18T11:17:37.051Z,13.38
2022-09-18T11:18:37.019Z,13.39
2022-09-18T11:19:37.071Z,13.44
2022-09-18T11:20:37.041Z,13.46
2022-09-18T11:21:37.093Z,13.49
2022-09-18T11:22:37.134Z,13.49
2022-09-18T11:23:36.970Z,13.51
2022-09-18T11:24:36.952Z,13.51
2022-09-18T11:25:36.961Z,13.51
2022-09-18T11:26:36.945Z,13.49
2022-09-18T11:27:36.922Z,13.44
2022-09-18T11:28:36.922Z,13.44
2022-09-18T11:29:36.938Z,13.41
2022-09-18T11:30:36.902Z,13.33
2022-09-18T11:31:36.969Z,13.30
2022-09-18T11:32:36.882Z,13.26
2022-09-18T11:33:36.853Z,13.25
2022-09-18T11:34:36.855Z,13.17
2022-09-18T11:35:36.844Z,13.10
2022-09-18T11:36:36.824Z,13.03
2022-09-18T11:37:36.871Z,13.00
2022-09-18T11:38:36.805Z,12.95
2022-09-18T11:39:36.798Z,12.95
2022-09-18T11:40:36.845Z,12.92
2022-09-18T11:41:36.774Z,12.92
2022-09-18T11:42:36.773Z,12.93
2022-09-18T11:43:36.748Z,12.97
2022-09-18T11:44:36.790Z,13.01
2022-09-18T11:45:36.756Z,13.04
2022-09-18T11:46:36.823Z,13.07
2022-09-18T11:47:36.726Z,13.08
2022-09-18T11:48:36.687Z,13.11
2022-09-18T11:49:36.687Z,13.08
2022-09-18T11:50:36.700Z,13.08
2022-09-18T11:51:36.678Z,13.08
2022-09-18T11:52:36.649Z,13.07
2022-09-18T11:53:36.659Z,13.05
2022-09-18T11:54:36.640Z,13.04
2022-09-18T11:55:36.619Z,13.05
2022-09-18T11:56:36.622Z,13.04
2022-09-18T11:57:36.612Z,13.03
2022-09-18T11:58:36.589Z,13.03
2022-09-18T11:59:36.571Z,13.03
2022-09-18T12:00:36.560Z,13.01
2022-09-18T12:01:36.862Z,13.01
2022-09-18T12:02:36.669Z,13.00
2022-09-18T12:03:36.552Z,12.96
2022-09-18T12:04:36.520Z,12.96
2022-09-18T12:05:36.521Z,12.96
2022-09-18T12:06:36.492Z,12.93
2022-09-18T12:07:41.856Z,12.93
2022-09-18T12:08:35.126Z,12.92
2022-09-18T12:09:35.211Z,12.90
2022-09-18T12:10:35.577Z,12.92
2022-09-18T12:11:35.075Z,12.89
2022-09-18T12:12:35.075Z,12.89
2022-09-18T12:13:35.059Z,12.89
2022-09-18T12:14:35.041Z,12.90
2022-09-18T12:15:35.051Z,12.93
2022-09-18T12:16:35.059Z,12.89
2022-09-18T12:17:35.031Z,12.93
2022-09-18T12:18:35.000Z,13.03
2022-09-18T12:19:34.998Z,13.07
2022-09-18T12:20:34.997Z,13.10
2022-09-18T12:21:34.998Z,13.15
2022-09-18T12:22:34.976Z,13.12
2022-09-18T12:23:34.966Z,13.20
2022-09-18T12:24:34.935Z,13.22
2022-09-18T12:25:35.024Z,13.23
2022-09-18T12:26:34.914Z,13.25
2022-09-18T12:27:34.883Z,13.29
2022-09-18T12:28:34.873Z,13.33
2022-09-18T12:29:34.864Z,13.42
2022-09-18T12:30:34.873Z,13.49
2022-09-18T12:31:34.940Z,13.52
2022-09-18T12:32:34.831Z,13.48
2022-09-18T12:33:34.949Z,13.51
2022-09-18T12:34:34.849Z,13.52
2022-09-18T12:35:34.810Z,13.60
2022-09-18T12:36:34.799Z,13.66
2022-09-18T12:37:34.769Z,13.70
2022-09-18T12:38:34.767Z,13.79
2022-09-18T12:39:35.423Z,13.88
2022-09-18T12:40:35.457Z,13.99
2022-09-18T12:41:35.560Z,14.06
2022-09-18T12:42:35.388Z,14.09
2022-09-18T12:43:35.368Z,14.10
2022-09-18T12:44:35.366Z,14.21
2022-09-18T12:45:35.396Z,14.25
2022-09-18T12:46:35.346Z,14.29
2022-09-18T12:47:35.365Z,14.28
2022-09-18T12:48:35.318Z,14.25
2022-09-18T12:49:35.293Z,14.22
2022-09-18T12:50:35.294Z,14.20
2022-09-18T12:51:35.280Z,14.12
2022-09-18T12:52:35.267Z,14.10